首页
METAR-TAF:

METAR-TAF

机场 :

查尔斯顿, 南卡罗来纳州, 美国

纬度: 32-53-56N, 经度: 080-02-26W, 海拔: 14米

当前天气观测

该预报发布于46分钟前的18:56 UTC
风速17节,风向,有时为26节阵风
温度 14°C
湿度 58%
气压 1012 hPa
能見度: 16.1公里
少量云层高于8000英尺
少量云层高于22000英尺

METAR: KCHS 171856Z 35017G26KT 10SM FEW080 FEW220 14/06 A2988 RMK AO2 PK WND 35026/1847 SLP117 T01390061 $

时间: 14:42 (19:42 UTC)

预报

该预报发布于2小时和22分钟前的17:20 UTC
预报有效从17日的 18点(UTC)到 18日的 18点(UTC)
风速15节,风向,有时为25节阵风
能見度: 10公里
散云层高于2500英尺
短暂存在
从 17日的 18点(UTC)到 17日的 21点(UTC)
多云层高于2500英尺
从 17日的 2100点(UTC)
风速6节,风向
能見度: 10公里
散云层高于2500英尺
从 18日的 0900点(UTC)
风速5节,风向北转西北
能見度: 10公里
散云层高于2500英尺
多云层高于8000英尺
附近有阵雨

TAF: KCHS 171720Z 1718/1818 36015G25KT P6SM SCT025 TEMPO 1718/1721 BKN025 FM172100 36006KT P6SM SCT025 FM180900 34005KT P6SM VCSH SCT025 BKN080

超过4000个机场的气象观测和天气预报(METAR&TAF报告)。

可查询的气象台以黄色和红色小点在地图上表示。

将鼠标移到小点上方,可查看气象台名称。

然后点击查看天气观测和预报。

如需切换地图:点击带黑十字的绿色按钮放大地图;点击带横线的绿色按钮缩小地图;或者点击绿色箭头查看邻近地区的地图。


METAR-TAF: